Time;durP1;ratioP1;P1;durP2;ratioP2;P2;SDS_P1;SDS_P2;PMS_P1;PMS_P2;Temp;Humidity;BMP_temperature;BMP_pressure;BME280_temperature;BME280_humidity;BME280_pressure;Samples;Min_cycle;Max_cycle;Signal;HPM_P1;HPM_P2
2021/04/09 00:00:57;;;;;;;;;;;1.80;95.90;;;;;;5077764;28;19967;-71
2021/04/09 00:03:23;;;;;;;;;;;1.80;96.30;;;;;;5076668;28;19916;-71
2021/04/09 00:05:48;;;;;;;;;;;1.80;94.80;;;;;;5091417;28;19920;-72
2021/04/09 00:08:16;;;;;;;;;;;1.80;96.80;;;;;;5086910;28;20002;-72
2021/04/09 00:10:44;;;;;;;;;;;1.80;97.20;;;;;;5079029;28;19916;-71
2021/04/09 00:13:10;;;;;;;;;;;1.80;98.00;;;;;;5076985;28;19931;-72
2021/04/09 00:15:35;;;;;;;;;;;1.80;97.90;;;;;;5095750;28;19912;-72
2021/04/09 00:18:03;;;;;;;;;;;1.80;98.60;;;;;;5091154;28;20890;-73
2021/04/09 00:20:28;;;;;;;;;;;1.80;99.00;;;;;;5076495;28;20031;-72
2021/04/09 00:22:54;;;;;;;;;;;1.80;97.90;;;;;;5077370;28;19931;-72
2021/04/09 00:25:20;;;;;;;;;;;1.70;98.90;;;;;;5085616;28;19997;-72
2021/04/09 00:27:47;;;;;;;;;;;1.70;99.70;;;;;;5089585;28;19916;-72
2021/04/09 00:30:18;;;;;;;;;;;1.70;99.80;;;;;;5081827;28;19923;-72
2021/04/09 00:32:49;;;;;;;;;;;1.70;99.90;;;;;;5077651;28;20396;-72
2021/04/09 00:35:19;;;;;;;;;;;1.70;99.90;;;;;;5087233;28;19920;-73
2021/04/09 00:37:44;;;;;;;;;;;1.70;99.90;;;;;;5094215;28;19916;-72
2021/04/09 00:40:11;;;;;;;;;;;1.60;99.90;;;;;;5081570;28;20597;-72
2021/04/09 00:42:36;;;;;;;;;;;1.70;99.90;;;;;;5078965;28;19916;-72
2021/04/09 00:45:02;;;;;;;;;;;1.60;99.90;;;;;;5088508;28;19931;-72
2021/04/09 00:47:28;;;;;;;;;;;1.60;99.90;;;;;;5075906;28;20439;-72
2021/04/09 00:49:56;;;;;;;;;;;1.60;99.90;;;;;;5076541;28;19928;-72
2021/04/09 00:52:22;;;;;;;;;;;1.60;99.90;;;;;;5091801;27;19912;-72
2021/04/09 00:54:47;;;;;;;;;;;1.60;99.90;;;;;;5085024;28;19920;-72
2021/04/09 00:57:13;;;;;;;;;;;1.60;99.90;;;;;;5081622;28;20310;-72
2021/04/09 00:59:38;;;;;;;;;;;1.60;99.60;;;;;;5079245;28;19924;-73
2021/04/09 01:02:04;;;;;;;;;;;1.60;99.30;;;;;;5076259;28;19923;-72
2021/04/09 01:04:30;;;;;;;;;;;1.60;99.80;;;;;;5077291;28;19935;-72
2021/04/09 01:06:55;;;;;;;;;;;1.60;99.90;;;;;;5087854;28;20053;-72
2021/04/09 01:09:21;;;;;;;;;;;1.60;99.90;;;;;;5089072;28;19927;-73
2021/04/09 01:11:46;;;;;;;;;;;1.60;99.90;;;;;;5066972;28;19919;-72
2021/04/09 01:14:14;;;;;;;;;;;1.50;99.90;;;;;;5077830;28;19980;-72
2021/04/09 01:16:44;;;;;;;;;;;1.50;99.90;;;;;;5085229;28;19916;-73
2021/04/09 01:19:28;;;;;;;;;;;1.50;98.50;;;;;;5089866;28;20007;-73
2021/04/09 01:21:58;;;;;;;;;;;1.50;99.70;;;;;;5077878;28;20483;-74
2021/04/09 01:24:23;;;;;;;;;;;1.50;99.70;;;;;;5086140;28;19920;-73
2021/04/09 01:26:55;;;;;;;;;;;1.40;99.80;;;;;;5089078;28;19941;-72
2021/04/09 01:29:39;;;;;;;;;;;1.50;99.60;;;;;;5077323;28;19920;-73
2021/04/09 01:32:05;;;;;;;;;;;1.50;99.40;;;;;;5075847;28;19935;-73
2021/04/09 01:34:33;;;;;;;;;;;1.40;99.90;;;;;;5084346;28;19920;-73
2021/04/09 01:37:01;;;;;;;;;;;1.40;99.90;;;;;;5089316;28;19923;-74
2021/04/09 01:39:44;;;;;;;;;;;1.40;99.90;;;;;;5078466;28;20744;-73
2021/04/09 01:42:10;;;;;;;;;;;1.40;99.90;;;;;;5074455;28;19921;-73
2021/04/09 01:44:36;;;;;;;;;;;1.40;99.90;;;;;;5090241;28;19912;-73
2021/04/09 01:47:04;;;;;;;;;;;1.40;99.90;;;;;;5092010;28;19912;-73
2021/04/09 01:49:31;;;;;;;;;;;1.40;99.90;;;;;;5075097;28;19978;-73
2021/04/09 01:51:59;;;;;;;;;;;1.40;99.30;;;;;;5083343;28;20376;-73
2021/04/09 01:54:27;;;;;;;;;;;1.40;99.90;;;;;;5086143;28;19969;-73
2021/04/09 01:56:55;;;;;;;;;;;1.40;99.90;;;;;;5082053;28;19947;-74
2021/04/09 01:59:20;;;;;;;;;;;1.30;99.90;;;;;;5076578;28;19925;-74
2021/04/09 02:01:49;;;;;;;;;;;1.30;99.90;;;;;;5061764;28;19927;-74
2021/04/09 02:04:18;;;;;;;;;;;1.30;99.90;;;;;;5095845;28;19912;-74
2021/04/09 02:06:43;;;;;;;;;;;1.20;99.90;;;;;;5075556;28;20499;-74
2021/04/09 02:09:10;;;;;;;;;;;1.20;99.90;;;;;;5066092;28;19927;-74
2021/04/09 02:11:38;;;;;;;;;;;1.20;99.90;;;;;;5077761;28;19920;-74
2021/04/09 02:14:04;;;;;;;;;;;1.20;99.90;;;;;;5091370;27;19920;-74
2021/04/09 02:16:29;;;;;;;;;;;1.20;99.90;;;;;;5079223;28;19956;-74
2021/04/09 02:18:56;;;;;;;;;;;1.20;99.90;;;;;;5086923;28;19924;-75
2021/04/09 02:21:22;;;;;;;;;;;1.20;99.90;;;;;;5076534;28;19928;-75
2021/04/09 02:23:47;;;;;;;;;;;1.20;99.90;;;;;;5089816;28;20348;-75
2021/04/09 02:26:13;;;;;;;;;;;1.20;99.90;;;;;;5082938;28;19920;-75
2021/04/09 02:28:38;;;;;;;;;;;1.20;99.90;;;;;;5077726;28;20393;-75
2021/04/09 02:31:06;;;;;;;;;;;1.20;99.90;;;;;;5074496;28;20277;-75
2021/04/09 02:33:34;;;;;;;;;;;1.20;99.90;;;;;;5075323;28;19920;-75
2021/04/09 02:36:26;;;;;;;;;;;1.20;99.90;;;;;;5074266;28;20518;-75
2021/04/09 02:38:57;;;;;;;;;;;1.20;99.90;;;;;;5070318;28;19924;-76
2021/04/09 02:41:24;;;;;;;;;;;1.10;99.90;;;;;;5077811;28;19921;-76
2021/04/09 02:43:49;;;;;;;;;;;1.20;99.90;;;;;;5105271;27;19920;-76
2021/04/09 02:46:25;;;;;;;;;;;1.10;99.90;;;;;;5083068;28;19927;-75
2021/04/09 02:48:52;;;;;;;;;;;1.10;99.90;;;;;;5073942;28;19960;-76
2021/04/09 02:51:17;;;;;;;;;;;1.10;99.90;;;;;;5060520;28;19916;-76
2021/04/09 02:53:43;;;;;;;;;;;1.10;99.90;;;;;;5081168;28;19978;-76
2021/04/09 02:56:11;;;;;;;;;;;1.10;99.90;;;;;;5073511;28;19916;-76
2021/04/09 02:58:37;;;;;;;;;;;1.00;99.90;;;;;;5086562;28;20011;-76
2021/04/09 03:01:05;;;;;;;;;;;1.10;99.90;;;;;;5076382;28;19917;-76
2021/04/09 03:03:30;;;;;;;;;;;1.00;99.90;;;;;;5105045;28;19996;-83
2021/04/09 03:05:56;;;;;;;;;;;1.00;99.90;;;;;;5101125;28;19920;-76
2021/04/09 03:08:21;;;;;;;;;;;1.00;99.90;;;;;;5079662;28;19916;-76
2021/04/09 03:10:47;;;;;;;;;;;1.00;99.90;;;;;;5087935;28;19982;-77
2021/04/09 03:13:13;;;;;;;;;;;1.00;99.90;;;;;;5092227;28;19959;-77
2021/04/09 03:15:58;;;;;;;;;;;1.00;99.90;;;;;;5088360;28;20371;-76
2021/04/09 03:18:27;;;;;;;;;;;1.00;99.90;;;;;;5072939;28;19928;-76
2021/04/09 03:20:57;;;;;;;;;;;0.90;99.90;;;;;;5076279;28;19928;-77
2021/04/09 03:23:25;;;;;;;;;;;0.90;99.90;;;;;;5074162;28;19920;-77
2021/04/09 03:25:53;;;;;;;;;;;1.00;99.90;;;;;;5078466;28;19921;-77
2021/04/09 03:28:18;;;;;;;;;;;1.00;99.90;;;;;;5089561;28;19919;-77
2021/04/09 03:30:49;;;;;;;;;;;1.00;99.90;;;;;;5082626;28;20269;-77
2021/04/09 03:33:18;;;;;;;;;;;1.00;99.90;;;;;;5078359;28;19920;-77
2021/04/09 03:35:44;;;;;;;;;;;1.10;99.90;;;;;;5084349;28;21773;-78
2021/04/09 03:38:12;;;;;;;;;;;1.10;99.90;;;;;;5078055;28;19927;-77
2021/04/09 03:40:40;;;;;;;;;;;1.10;99.90;;;;;;5080124;28;19920;-77
2021/04/09 03:43:05;;;;;;;;;;;1.10;99.90;;;;;;5077793;28;19923;-76
2021/04/09 03:45:31;;;;;;;;;;;1.10;99.90;;;;;;5079749;28;19916;-77
2021/04/09 03:47:58;;;;;;;;;;;1.10;99.90;;;;;;5088476;28;19974;-77
2021/04/09 03:50:24;;;;;;;;;;;1.20;99.90;;;;;;5089740;28;20358;-77
2021/04/09 03:52:49;;;;;;;;;;;1.20;99.90;;;;;;5078303;28;19924;-76
2021/04/09 03:55:15;;;;;;;;;;;1.20;99.90;;;;;;5078263;28;19916;-77
2021/04/09 03:57:41;;;;;;;;;;;1.20;99.90;;;;;;5079406;28;20444;-77
2021/04/09 04:00:06;;;;;;;;;;;1.20;99.90;;;;;;5078239;28;19981;-76
2021/04/09 04:02:32;;;;;;;;;;;1.10;99.90;;;;;;5090587;28;19917;-77
2021/04/09 04:04:58;;;;;;;;;;;1.20;99.90;;;;;;5078228;28;20424;-77
2021/04/09 04:07:23;;;;;;;;;;;1.20;99.90;;;;;;5087707;28;19951;-77
2021/04/09 04:09:49;;;;;;;;;;;1.10;99.90;;;;;;5094058;28;19911;-77
2021/04/09 04:12:19;;;;;;;;;;;1.10;99.90;;;;;;5077473;28;19920;-77
2021/04/09 04:14:45;;;;;;;;;;;1.10;99.90;;;;;;5078235;28;19950;-76
2021/04/09 04:17:10;;;;;;;;;;;1.10;99.90;;;;;;5076615;28;19912;-77
2021/04/09 04:19:36;;;;;;;;;;;1.10;99.90;;;;;;5078000;28;19924;-77
2021/04/09 04:22:04;;;;;;;;;;;1.10;99.90;;;;;;5082295;28;19920;-77
2021/04/09 04:24:32;;;;;;;;;;;1.00;99.90;;;;;;5079477;28;19927;-77
2021/04/09 04:26:57;;;;;;;;;;;1.00;99.90;;;;;;5087320;28;19926;-77
2021/04/09 04:29:23;;;;;;;;;;;1.00;99.90;;;;;;5093465;28;19911;-77
2021/04/09 04:31:51;;;;;;;;;;;1.00;99.90;;;;;;5083905;28;20002;-76
2021/04/09 04:34:16;;;;;;;;;;;0.90;99.90;;;;;;5078418;28;19917;-77
2021/04/09 04:36:42;;;;;;;;;;;0.90;99.90;;;;;;5085087;28;19946;-77
2021/04/09 04:39:07;;;;;;;;;;;0.90;99.90;;;;;;5076657;28;19920;-77
2021/04/09 04:41:33;;;;;;;;;;;0.90;99.90;;;;;;5071135;28;19920;-77
2021/04/09 04:43:59;;;;;;;;;;;0.90;99.90;;;;;;5075792;28;19969;-77
2021/04/09 04:46:26;;;;;;;;;;;0.90;99.90;;;;;;5081268;28;20031;-77
2021/04/09 04:48:52;;;;;;;;;;;1.00;99.90;;;;;;5079824;28;19956;-77
2021/04/09 04:51:18;;;;;;;;;;;0.90;99.90;;;;;;5086503;28;20479;-76
2021/04/09 04:53:43;;;;;;;;;;;0.90;99.90;;;;;;5077831;28;19930;-77
2021/04/09 04:56:09;;;;;;;;;;;0.90;99.90;;;;;;5077895;28;19920;-77
2021/04/09 04:58:34;;;;;;;;;;;0.90;99.90;;;;;;5076182;28;20848;-76
2021/04/09 05:01:00;;;;;;;;;;;0.90;99.90;;;;;;5077883;28;19916;-77
2021/04/09 05:03:25;;;;;;;;;;;0.90;99.90;;;;;;5076655;28;20428;-77
2021/04/09 05:05:51;;;;;;;;;;;0.90;99.90;;;;;;5082171;28;21300;-77
2021/04/09 05:08:17;;;;;;;;;;;0.90;99.90;;;;;;5094511;28;20018;-77
2021/04/09 05:10:42;;;;;;;;;;;0.90;99.90;;;;;;5084368;28;19920;-77
2021/04/09 05:13:08;;;;;;;;;;;0.90;99.90;;;;;;5077523;28;19929;-77
2021/04/09 05:15:33;;;;;;;;;;;0.90;99.90;;;;;;5078950;28;21674;-76
2021/04/09 05:17:59;;;;;;;;;;;0.90;99.90;;;;;;5089158;28;20332;-77
2021/04/09 05:20:24;;;;;;;;;;;0.90;99.90;;;;;;5088186;28;19920;-77
2021/04/09 05:22:52;;;;;;;;;;;0.90;99.90;;;;;;5074737;28;20550;-76
2021/04/09 05:25:18;;;;;;;;;;;0.90;99.90;;;;;;5079215;28;19956;-77
2021/04/09 05:27:43;;;;;;;;;;;0.90;99.90;;;;;;5074995;28;20034;-78
2021/04/09 05:30:09;;;;;;;;;;;0.90;99.90;;;;;;5079129;28;19916;-77
2021/04/09 05:32:35;;;;;;;;;;;1.00;99.90;;;;;;5075932;28;20041;-78
2021/04/09 05:35:00;;;;;;;;;;;1.00;99.90;;;;;;5076855;28;19920;-77
2021/04/09 05:37:28;;;;;;;;;;;1.00;99.90;;;;;;5084826;28;19966;-78
2021/04/09 05:39:54;;;;;;;;;;;1.00;99.90;;;;;;5089117;28;19924;-77
2021/04/09 05:42:19;;;;;;;;;;;1.10;99.90;;;;;;5076555;28;20012;-79
2021/04/09 05:44:47;;;;;;;;;;;1.10;99.90;;;;;;5075971;28;19916;-79
2021/04/09 05:47:13;;;;;;;;;;;1.20;99.90;;;;;;5086985;28;19976;-77
2021/04/09 05:49:41;;;;;;;;;;;1.20;99.90;;;;;;5074193;28;19924;-77
2021/04/09 05:52:09;;;;;;;;;;;1.20;99.90;;;;;;5086340;28;19945;-77
2021/04/09 05:54:34;;;;;;;;;;;1.30;99.90;;;;;;5076773;28;19978;-77
2021/04/09 05:57:00;;;;;;;;;;;1.30;99.90;;;;;;5084558;28;20353;-78
2021/04/09 05:59:26;;;;;;;;;;;1.40;99.90;;;;;;5091589;28;20527;-77
2021/04/09 06:01:52;;;;;;;;;;;1.40;99.90;;;;;;5079538;28;19927;-77
2021/04/09 06:04:17;;;;;;;;;;;1.50;99.90;;;;;;5077581;28;19985;-77
2021/04/09 06:06:45;;;;;;;;;;;1.60;99.90;;;;;;5075575;28;20459;-77
2021/04/09 06:09:11;;;;;;;;;;;1.70;99.90;;;;;;5075513;28;20520;-78
2021/04/09 06:11:36;;;;;;;;;;;1.70;99.90;;;;;;5088411;28;20007;-79
2021/04/09 06:14:02;;;;;;;;;;;1.80;99.90;;;;;;5093105;28;19920;-77
2021/04/09 06:16:28;;;;;;;;;;;1.90;99.90;;;;;;5086779;28;19966;-77
2021/04/09 06:18:53;;;;;;;;;;;2.00;99.90;;;;;;5074778;28;20513;-77
2021/04/09 06:21:21;;;;;;;;;;;2.10;99.90;;;;;;5074809;28;19978;-77
2021/04/09 06:23:46;;;;;;;;;;;2.20;99.90;;;;;;5075311;28;19917;-77
2021/04/09 06:26:14;;;;;;;;;;;2.30;99.90;;;;;;5087089;28;20304;-77
2021/04/09 06:28:40;;;;;;;;;;;2.40;99.90;;;;;;5078820;28;19972;-76
2021/04/09 06:31:05;;;;;;;;;;;2.50;99.90;;;;;;5091142;27;19916;-76
2021/04/09 06:33:31;;;;;;;;;;;2.60;99.90;;;;;;5081696;28;19921;-76
2021/04/09 06:36:00;;;;;;;;;;;2.70;99.90;;;;;;5081335;28;20413;-76
2021/04/09 06:38:26;;;;;;;;;;;2.80;99.90;;;;;;5092453;28;20010;-75
2021/04/09 06:40:51;;;;;;;;;;;2.90;99.90;;;;;;5090719;28;20003;-75
2021/04/09 06:43:17;;;;;;;;;;;2.90;99.90;;;;;;5077644;28;19959;-75
2021/04/09 06:45:44;;;;;;;;;;;3.00;99.90;;;;;;5095354;28;19968;-75
2021/04/09 06:48:10;;;;;;;;;;;3.10;99.40;;;;;;5087065;28;20022;-75
2021/04/09 06:50:36;;;;;;;;;;;3.10;97.70;;;;;;5094317;28;19924;-75
2021/04/09 06:53:05;;;;;;;;;;;3.20;99.60;;;;;;5092249;28;19969;-74
2021/04/09 06:55:30;;;;;;;;;;;3.30;95.90;;;;;;5094451;28;19916;-74
2021/04/09 06:57:56;;;;;;;;;;;3.50;98.30;;;;;;5111321;28;19950;-75
2021/04/09 07:00:26;;;;;;;;;;;3.60;98.80;;;;;;5095633;28;20396;-74
2021/04/09 07:02:51;;;;;;;;;;;3.60;99.60;;;;;;5106680;28;19928;-74
2021/04/09 07:05:17;;;;;;;;;;;3.70;94.90;;;;;;5090489;28;19968;-74
2021/04/09 07:07:43;;;;;;;;;;;3.80;94.80;;;;;;5093591;28;20007;-74
2021/04/09 07:10:08;;;;;;;;;;;3.90;95.30;;;;;;5084106;28;19912;-74
2021/04/09 07:12:34;;;;;;;;;;;4.00;93.50;;;;;;5094605;28;19912;-74
2021/04/09 07:15:02;;;;;;;;;;;4.10;92.10;;;;;;5100248;28;20514;-73
2021/04/09 07:17:30;;;;;;;;;;;4.20;92.20;;;;;;5095998;28;19920;-74
2021/04/09 07:20:14;;;;;;;;;;;4.30;92.60;;;;;;5112602;27;19976;-74
2021/04/09 07:22:40;;;;;;;;;;;4.40;94.10;;;;;;5095347;28;21981;-74
2021/04/09 07:25:13;;;;;;;;;;;4.50;91.40;;;;;;5098386;27;19912;-73
2021/04/09 07:27:39;;;;;;;;;;;4.60;93.30;;;;;;5095128;28;19923;-73
2021/04/09 07:30:05;;;;;;;;;;;4.70;93.70;;;;;;5092695;28;19912;-74
2021/04/09 07:32:36;;;;;;;;;;;4.80;90.20;;;;;;5096564;28;19920;-73
2021/04/09 07:35:04;;;;;;;;;;;4.90;86.70;;;;;;5099080;28;19912;-74
2021/04/09 07:37:31;;;;;;;;;;;5.00;86.40;;;;;;5098664;28;19948;-74
2021/04/09 07:39:59;;;;;;;;;;;5.20;84.50;;;;;;5094872;28;20045;-74
2021/04/09 07:42:28;;;;;;;;;;;5.30;89.40;;;;;;5092552;28;20536;-73
2021/04/09 07:44:58;;;;;;;;;;;5.40;84.00;;;;;;5093835;28;19926;-72
2021/04/09 07:47:29;;;;;;;;;;;5.50;84.80;;;;;;5082876;28;19961;-72
2021/04/09 07:49:58;;;;;;;;;;;5.70;82.10;;;;;;5098216;28;20000;-73
2021/04/09 07:52:26;;;;;;;;;;;5.90;84.40;;;;;;5093986;28;19923;-72
2021/04/09 07:54:51;;;;;;;;;;;6.00;84.70;;;;;;5094887;28;19912;-72
2021/04/09 07:57:29;;;;;;;;;;;6.10;82.20;;;;;;5095913;28;19980;-72
2021/04/09 07:59:54;;;;;;;;;;;6.20;85.20;;;;;;5092863;28;19991;-73
2021/04/09 08:02:36;;;;;;;;;;;6.30;82.80;;;;;;5096654;28;20345;-72
2021/04/09 08:05:04;;;;;;;;;;;6.40;81.80;;;;;;5094980;28;19934;-72
2021/04/09 08:07:33;;;;;;;;;;;6.50;83.20;;;;;;5098209;28;19923;-72
2021/04/09 08:09:59;;;;;;;;;;;6.60;81.50;;;;;;5094309;28;19916;-72
2021/04/09 08:12:28;;;;;;;;;;;6.70;80.40;;;;;;5091930;28;19919;-72
2021/04/09 08:14:53;;;;;;;;;;;6.80;80.50;;;;;;5094214;28;19912;-73
2021/04/09 08:17:20;;;;;;;;;;;6.90;80.10;;;;;;5097291;28;19935;-72
2021/04/09 08:19:46;;;;;;;;;;;7.00;80.60;;;;;;5094601;28;19931;-72
2021/04/09 08:22:14;;;;;;;;;;;7.10;83.20;;;;;;5093560;28;19919;-73
2021/04/09 08:24:40;;;;;;;;;;;7.30;79.90;;;;;;5078202;28;19920;-73
2021/04/09 08:27:06;;;;;;;;;;;7.50;79.70;;;;;;5082567;28;19911;-72
2021/04/09 08:29:33;;;;;;;;;;;7.50;75.90;;;;;;5084901;28;19916;-73
2021/04/09 08:32:03;;;;;;;;;;;7.70;78.40;;;;;;5090086;28;20022;-73
2021/04/09 08:34:29;;;;;;;;;;;8.00;75.50;;;;;;5100530;28;19998;-73
2021/04/09 08:36:54;;;;;;;;;;;8.20;78.60;;;;;;5124647;27;20494;-72
2021/04/09 08:39:25;;;;;;;;;;;8.40;77.80;;;;;;5091295;28;20011;-73
2021/04/09 08:41:50;;;;;;;;;;;8.50;75.30;;;;;;5098325;28;19950;-73
2021/04/09 08:44:16;;;;;;;;;;;8.60;75.80;;;;;;5113410;27;20237;-73
2021/04/09 08:46:45;;;;;;;;;;;8.80;78.90;;;;;;5079839;28;19990;-73
2021/04/09 08:49:13;;;;;;;;;;;8.80;73.30;;;;;;5091681;28;19920;-73
2021/04/09 08:51:39;;;;;;;;;;;9.00;74.70;;;;;;5109733;27;20446;-73
2021/04/09 08:54:20;;;;;;;;;;;9.00;73.80;;;;;;5090103;28;19916;-72
2021/04/09 08:56:46;;;;;;;;;;;9.10;71.90;;;;;;5092949;28;19923;-72
2021/04/09 08:59:12;;;;;;;;;;;9.10;70.80;;;;;;5094361;28;19923;-72
2021/04/09 09:01:40;;;;;;;;;;;9.30;71.60;;;;;;5092700;28;19916;-73
2021/04/09 09:04:21;;;;;;;;;;;9.40;71.20;;;;;;5089665;28;19943;-72
2021/04/09 09:06:51;;;;;;;;;;;9.50;72.40;;;;;;5096899;28;19969;-72
2021/04/09 09:09:28;;;;;;;;;;;9.60;73.00;;;;;;5095962;28;20503;-73
2021/04/09 09:12:00;;;;;;;;;;;9.70;72.40;;;;;;5080666;28;19934;-73
2021/04/09 09:14:36;;;;;;;;;;;9.80;71.60;;;;;;5092635;28;19935;-73
2021/04/09 09:17:17;;;;;;;;;;;10.00;70.40;;;;;;5090793;28;19912;-73
2021/04/09 09:19:42;;;;;;;;;;;10.20;72.90;;;;;;5094819;28;19924;-73
2021/04/09 09:22:11;;;;;;;;;;;10.30;71.90;;;;;;5094556;28;19916;-72
2021/04/09 09:24:51;;;;;;;;;;;10.50;71.50;;;;;;5097221;28;20454;-73
2021/04/09 09:27:19;;;;;;;;;;;10.70;69.20;;;;;;5094325;28;19919;-73
2021/04/09 09:29:47;;;;;;;;;;;10.60;66.10;;;;;;5089237;28;20011;-72
2021/04/09 09:32:12;;;;;;;;;;;10.60;64.50;;;;;;5078049;28;20038;-73
2021/04/09 09:34:41;;;;;;;;;;;10.80;64.60;;;;;;5088265;28;19962;-73
2021/04/09 09:37:07;;;;;;;;;;;10.90;65.60;;;;;;5085889;28;20014;-74
2021/04/09 09:39:45;;;;;;;;;;;11.10;71.00;;;;;;5090782;28;20018;-73
2021/04/09 09:42:13;;;;;;;;;;;11.10;63.80;;;;;;5087838;28;19923;-73
2021/04/09 09:44:39;;;;;;;;;;;11.10;62.80;;;;;;5091776;28;19927;-73
2021/04/09 09:47:06;;;;;;;;;;;11.20;62.90;;;;;;5092499;28;19916;-74
2021/04/09 09:49:36;;;;;;;;;;;11.20;63.30;;;;;;5088050;28;19951;-73
2021/04/09 09:52:02;;;;;;;;;;;11.20;63.80;;;;;;5087140;28;19974;-73
2021/04/09 09:54:31;;;;;;;;;;;11.30;63.10;;;;;;5073591;28;19920;-73
2021/04/09 09:56:57;;;;;;;;;;;11.40;61.60;;;;;;5089054;28;19960;-73
2021/04/09 09:59:26;;;;;;;;;;;11.40;61.30;;;;;;5073110;28;20243;-74
2021/04/09 10:01:58;;;;;;;;;;;11.40;61.30;;;;;;5089221;28;19935;-71
2021/04/09 10:04:24;;;;;;;;;;;11.60;61.70;;;;;;5089525;28;19951;-71
2021/04/09 10:06:53;;;;;;;;;;;11.60;59.10;;;;;;5095742;28;20265;-70
2021/04/09 10:09:28;;;;;;;;;;;11.80;63.60;;;;;;5090953;28;19923;-73
2021/04/09 10:11:54;;;;;;;;;;;11.70;57.40;;;;;;5088816;28;19912;-73
2021/04/09 10:14:20;;;;;;;;;;;11.80;61.70;;;;;;5090848;28;19966;-73
2021/04/09 10:16:48;;;;;;;;;;;12.00;60.50;;;;;;5092552;28;20006;-72
2021/04/09 10:19:13;;;;;;;;;;;12.00;58.50;;;;;;5089587;28;19931;-73
2021/04/09 10:21:40;;;;;;;;;;;11.80;58.10;;;;;;5091757;28;19984;-72
2021/04/09 10:24:19;;;;;;;;;;;12.00;62.40;;;;;;5097668;28;19919;-73
2021/04/09 10:26:44;;;;;;;;;;;11.90;57.10;;;;;;5096063;28;20006;-72
2021/04/09 10:29:26;;;;;;;;;;;11.80;55.80;;;;;;5091288;28;20058;-73
2021/04/09 10:31:54;;;;;;;;;;;11.90;60.60;;;;;;5089833;28;19923;-72
2021/04/09 10:34:20;;;;;;;;;;;12.20;58.80;;;;;;5092745;28;19923;-73
2021/04/09 10:36:46;;;;;;;;;;;12.10;57.70;;;;;;5123171;27;19912;-73
2021/04/09 10:39:13;;;;;;;;;;;12.30;58.10;;;;;;5088716;28;20030;-73
2021/04/09 10:41:39;;;;;;;;;;;12.40;60.50;;;;;;5094088;28;20014;-73
2021/04/09 10:44:08;;;;;;;;;;;12.50;57.30;;;;;;5105910;27;19934;-73
2021/04/09 10:46:35;;;;;;;;;;;12.50;55.70;;;;;;5090480;28;19924;-73
2021/04/09 10:49:04;;;;;;;;;;;12.60;57.90;;;;;;5091533;28;19927;-73
2021/04/09 10:51:33;;;;;;;;;;;12.80;59.80;;;;;;5087297;28;19931;-73
2021/04/09 10:53:59;;;;;;;;;;;13.00;57.10;;;;;;5096793;28;19946;-72
2021/04/09 10:56:25;;;;;;;;;;;13.10;56.40;;;;;;5092421;28;19913;-72
2021/04/09 10:58:52;;;;;;;;;;;13.20;59.80;;;;;;5092032;28;19927;-73
2021/04/09 11:01:23;;;;;;;;;;;13.40;55.90;;;;;;5090421;28;19916;-72
2021/04/09 11:03:48;;;;;;;;;;;13.30;55.20;;;;;;5108025;28;20338;-73
2021/04/09 11:06:14;;;;;;;;;;;13.60;55.30;;;;;;5094567;28;19999;-73
2021/04/09 11:08:39;;;;;;;;;;;13.90;54.50;;;;;;5090308;28;20443;-73
2021/04/09 11:11:07;;;;;;;;;;;14.10;53.50;;;;;;5089920;28;19930;-73
2021/04/09 11:13:36;;;;;;;;;;;14.00;50.60;;;;;;5092726;28;19920;-73
2021/04/09 11:16:05;;;;;;;;;;;14.00;51.00;;;;;;5107028;28;19924;-73
2021/04/09 11:18:51;;;;;;;;;;;14.40;52.10;;;;;;5090725;28;20389;-73
2021/04/09 11:21:37;;;;;;;;;;;14.30;52.20;;;;;;5088371;28;20016;-73
2021/04/09 11:24:02;;;;;;;;;;;14.50;50.90;;;;;;5092493;28;20578;-73
2021/04/09 11:26:30;;;;;;;;;;;14.50;50.80;;;;;;5093500;28;20337;-73
2021/04/09 11:28:56;;;;;;;;;;;14.50;51.70;;;;;;5074727;28;19968;-72
2021/04/09 11:31:24;;;;;;;;;;;14.60;50.10;;;;;;5089348;28;19915;-72
2021/04/09 11:33:57;;;;;;;;;;;14.70;51.60;;;;;;5093416;28;20376;-73
2021/04/09 11:36:25;;;;;;;;;;;14.50;49.00;;;;;;5081292;28;19911;-73
2021/04/09 11:39:03;;;;;;;;;;;15.00;54.10;;;;;;5092067;28;19945;-73
2021/04/09 11:41:29;;;;;;;;;;;15.20;50.50;;;;;;5093174;28;19912;-72
2021/04/09 11:43:57;;;;;;;;;;;15.50;48.00;;;;;;5086884;28;19912;-73
2021/04/09 11:46:32;;;;;;;;;;;15.80;50.40;;;;;;5092386;28;19912;-73
2021/04/09 11:48:58;;;;;;;;;;;15.80;47.90;;;;;;5091575;28;19919;-72
2021/04/09 11:51:24;;;;;;;;;;;15.70;45.70;;;;;;5087691;28;19919;-72
2021/04/09 11:53:56;;;;;;;;;;;15.70;49.90;;;;;;5093536;28;20380;-73
2021/04/09 11:56:37;;;;;;;;;;;15.70;49.30;;;;;;5092918;28;19979;-73
2021/04/09 11:59:17;;;;;;;;;;;15.80;48.20;;;;;;5094197;28;19924;-73
2021/04/09 12:01:43;;;;;;;;;;;16.20;49.80;;;;;;5090867;28;19968;-73
2021/04/09 12:04:27;;;;;;;;;;;16.30;46.90;;;;;;5093443;28;19919;-73
2021/04/09 12:06:55;;;;;;;;;;;15.90;46.30;;;;;;5092217;28;19923;-73
2021/04/09 12:09:20;;;;;;;;;;;16.00;46.20;;;;;;5094905;28;19930;-73
2021/04/09 12:11:46;;;;;;;;;;;16.10;48.40;;;;;;5094629;28;20014;-72
2021/04/09 12:14:12;;;;;;;;;;;15.70;43.30;;;;;;5093516;28;20007;-73
2021/04/09 12:16:37;;;;;;;;;;;15.90;45.70;;;;;;5090783;28;19923;-73
2021/04/09 12:19:03;;;;;;;;;;;16.10;46.40;;;;;;5090641;28;19923;-72
2021/04/09 12:21:31;;;;;;;;;;;16.30;47.20;;;;;;5087788;28;19920;-72
2021/04/09 12:23:57;;;;;;;;;;;16.40;45.20;;;;;;5093435;28;20204;-73
2021/04/09 12:26:23;;;;;;;;;;;16.60;50.80;;;;;;5090255;28;20038;-72
2021/04/09 12:28:51;;;;;;;;;;;16.70;44.20;;;;;;5089103;28;19912;-73
2021/04/09 12:31:19;;;;;;;;;;;16.60;43.90;;;;;;5096892;28;19971;-72
2021/04/09 12:33:44;;;;;;;;;;;16.50;43.80;;;;;;5090155;28;19988;-73
2021/04/09 12:36:10;;;;;;;;;;;16.30;46.00;;;;;;5091848;28;20596;-73
2021/04/09 12:38:38;;;;;;;;;;;16.20;44.30;;;;;;5087113;28;20018;-73
2021/04/09 12:41:05;;;;;;;;;;;16.40;45.10;;;;;;5090447;28;19915;-74
2021/04/09 12:43:31;;;;;;;;;;;16.50;44.70;;;;;;5114117;27;19969;-73
2021/04/09 12:45:57;;;;;;;;;;;16.80;47.90;;;;;;5097073;28;19912;-73
2021/04/09 12:48:25;;;;;;;;;;;17.10;42.40;;;;;;5096440;28;19916;-73
2021/04/09 12:50:50;;;;;;;;;;;17.30;44.10;;;;;;5094484;28;19941;-73
2021/04/09 12:53:16;;;;;;;;;;;17.60;44.00;;;;;;5088121;28;19919;-72
2021/04/09 12:55:44;;;;;;;;;;;17.70;41.60;;;;;;5094695;28;20291;-73
2021/04/09 12:58:09;;;;;;;;;;;18.00;45.30;;;;;;5096600;28;19912;-72
2021/04/09 13:00:35;;;;;;;;;;;18.60;44.80;;;;;;5094405;28;19927;-73
2021/04/09 13:03:01;;;;;;;;;;;18.90;43.50;;;;;;5093124;28;19920;-73
2021/04/09 13:05:28;;;;;;;;;;;18.80;42.30;;;;;;5096348;28;19919;-73
2021/04/09 13:07:53;;;;;;;;;;;19.00;42.60;;;;;;5094386;28;19919;-73
2021/04/09 13:10:19;;;;;;;;;;;18.90;40.70;;;;;;5096007;28;19917;-72
2021/04/09 13:12:44;;;;;;;;;;;18.90;39.80;;;;;;5093664;28;20347;-73
2021/04/09 13:15:10;;;;;;;;;;;19.10;43.00;;;;;;5093085;28;20349;-73
2021/04/09 13:17:41;;;;;;;;;;;19.50;41.90;;;;;;5092887;28;20348;-73
2021/04/09 13:20:06;;;;;;;;;;;19.40;39.90;;;;;;5092972;28;19935;-73
2021/04/09 13:22:32;;;;;;;;;;;19.70;40.30;;;;;;5094377;28;19920;-73
2021/04/09 13:25:01;;;;;;;;;;;19.80;41.70;;;;;;5089408;28;19939;-73
2021/04/09 13:27:26;;;;;;;;;;;19.50;38.20;;;;;;5090361;28;19920;-73
2021/04/09 13:29:52;;;;;;;;;;;19.70;41.70;;;;;;5090366;28;20007;-73
2021/04/09 13:32:17;;;;;;;;;;;20.50;43.70;;;;;;5090872;28;19919;-72
2021/04/09 13:34:45;;;;;;;;;;;19.90;39.90;;;;;;5081754;28;19928;-73
2021/04/09 13:37:11;;;;;;;;;;;19.30;39.70;;;;;;5079656;28;20054;-73
2021/04/09 13:39:36;;;;;;;;;;;19.20;39.00;;;;;;5090070;28;20006;-73
2021/04/09 13:42:02;;;;;;;;;;;19.30;41.00;;;;;;5094129;28;19959;-73
2021/04/09 13:44:28;;;;;;;;;;;18.80;40.80;;;;;;5092487;28;19912;-73
2021/04/09 13:46:53;;;;;;;;;;;18.50;40.50;;;;;;5095519;28;19916;-73
2021/04/09 13:49:19;;;;;;;;;;;18.40;39.80;;;;;;5096493;28;19912;-72
2021/04/09 13:51:45;;;;;;;;;;;18.50;42.20;;;;;;5092825;28;19916;-72
2021/04/09 13:54:10;;;;;;;;;;;18.30;42.90;;;;;;5091505;28;19916;-73
2021/04/09 13:56:37;;;;;;;;;;;18.00;41.30;;;;;;5089961;28;19920;-73
2021/04/09 13:59:03;;;;;;;;;;;17.60;39.70;;;;;;5088010;28;19942;-73
2021/04/09 14:01:28;;;;;;;;;;;17.60;40.40;;;;;;5092558;28;19912;-73
2021/04/09 14:03:54;;;;;;;;;;;17.50;40.60;;;;;;5091338;28;20353;-72
2021/04/09 14:06:19;;;;;;;;;;;17.50;42.00;;;;;;5091298;28;20329;-73
2021/04/09 14:08:45;;;;;;;;;;;17.40;43.50;;;;;;5074538;28;19916;-73
2021/04/09 14:11:12;;;;;;;;;;;17.30;40.20;;;;;;5092155;28;19916;-73
2021/04/09 14:13:38;;;;;;;;;;;17.30;42.90;;;;;;5090648;28;19912;-73
2021/04/09 14:16:04;;;;;;;;;;;17.00;44.80;;;;;;5094159;28;19916;-72
2021/04/09 14:18:29;;;;;;;;;;;17.00;41.00;;;;;;5093481;28;19922;-73
2021/04/09 14:20:57;;;;;;;;;;;16.90;43.90;;;;;;5091364;28;19927;-72
2021/04/09 14:23:25;;;;;;;;;;;16.80;42.80;;;;;;5090651;28;19945;-73
2021/04/09 14:25:52;;;;;;;;;;;16.80;41.50;;;;;;5094575;28;20415;-73
2021/04/09 14:28:18;;;;;;;;;;;16.90;43.60;;;;;;5091344;28;19942;-73